Voyager Of The Seas — C6SE5 — position and weather

sailwx.info

Track history (hours):
 
Tides and Currents Weather Stations Pressure Air Temp Water Temp Dewpoint Dewpoint Depression Visibility Wind Speed Wind Dir Waves Ship Positions

Voyager Of The Seas

Operator: Royal Caribbean Cruises Ltd

Last reported at 2017-Nov-19 18:32 UTC. Time now 2017-Nov-21 08:18 UTC.
Position S 28°31' E 153°60'.

Type: Passenger vessel. MMSI: 311317000.

Date/timePositionNaut miles runAvg speedWind from/ knotsBaromVisibWave heightAir tempDewpointWater temp
2017-Nov-19 18:32S 28°31' E 153°60'119.9
2017-Nov-19 18:30S 28°31' E 153°60'1819.8
2017-Nov-19 17:35S 28°13' E 153°58'219.6
2017-Nov-19 17:30S 28°11' E 153°58'1019.4
2017-Nov-19 17:00S 28°02' E 153°57'1119.4
2017-Nov-19 16:25S 27°50' E 153°56'819.3
2017-Nov-19 16:00S 27°42' E 153°55'7318.3
2017-Nov-19 12:00S 26°30' E 153°42'22218.5 110 / 221018.7 22.0 25.0
2017-Nov-19 00:00S 23°06' E 152°06'21618.0 110 / 121015.610.8 24.5 25.0
2017-Nov-18 12:00S 20°36' E 149°18'171 3.6 090 / 141013.010.8 25.0 25.0
2017-Nov-16 12:00S 19°30' E 152°06'42517.7 120 / 131015.0
2017-Nov-15 12:00S 26°30' E 153°18'1916.3 050 / 101018.8 22.5 23.0
2017-Nov-15 10:50S 26°48' E 153°11'413.6
2017-Nov-15 10:31S 26°52' E 153°09'917.6
2017-Nov-15 10:01S 26°60' E 153°14'816.4
2017-Nov-15 09:31S 27°06' E 153°20'816.1
2017-Nov-15 09:01S 27°14' E 153°20'816.9
2017-Nov-15 08:31S 27°19' E 153°12'4 7.9
2017-Nov-15 07:59S 27°23' E 153°10'0 0.0
2017-Nov-15 07:29S 27°23' E 153°10'0 0.0
2017-Nov-15 06:59S 27°23' E 153°10'0 0.0
2017-Nov-15 06:29S 27°23' E 153°10'0 0.0
2017-Nov-15 05:59S 27°23' E 153°10'0 0.0
2017-Nov-15 05:29S 27°23' E 153°10'0 0.0
2017-Nov-15 04:59S 27°23' E 153°10'0 0.0
2017-Nov-15 04:29S 27°23' E 153°10'0 0.0
2017-Nov-15 03:59S 27°23' E 153°10'0 0.0
2017-Nov-15 03:29S 27°23' E 153°10'0 0.0
2017-Nov-15 02:59S 27°23' E 153°10'0 0.0
2017-Nov-15 02:29S 27°23' E 153°10'0 0.0
2017-Nov-15 01:59S 27°23' E 153°10'0 0.0
2017-Nov-15 01:29S 27°23' E 153°10'0 0.0
2017-Nov-15 00:56S 27°23' E 153°10'0 0.0
2017-Nov-15 00:29S 27°23' E 153°10'0 0.0
2017-Nov-14 23:59S 27°23' E 153°10'0 0.0
2017-Nov-14 23:29S 27°23' E 153°10'0 0.0
2017-Nov-14 22:59S 27°23' E 153°10'0 0.0
2017-Nov-14 22:29S 27°23' E 153°10'0 0.0
2017-Nov-14 21:59S 27°23' E 153°10'0 0.1
2017-Nov-14 21:26S 27°23' E 153°10'1 1.5
2017-Nov-14 21:00S 27°22' E 153°10'611.3
2017-Nov-14 20:30S 27°18' E 153°13'917.0
2017-Nov-14 20:00S 27°12' E 153°21'917.8
2017-Nov-14 19:30S 27°03' E 153°18'917.4
2017-Nov-14 19:00S 26°56' E 153°12'815.2
2017-Nov-14 18:30S 26°49' E 153°10'613.0
2017-Nov-14 18:00S 26°43' E 153°13'5 9.1
2017-Nov-14 17:30S 26°44' E 153°18'510.6
2017-Nov-14 17:00S 26°47' E 153°23'510.8
2017-Nov-14 16:30S 26°50' E 153°27'610.6
2017-Nov-14 15:59S 26°53' E 153°32'611.3
2017-Nov-14 15:26S 26°57' E 153°38'511.9
2017-Nov-14 15:00S 27°01' E 153°42'611.9
2017-Nov-14 14:30S 27°05' E 153°47'812.3
2017-Nov-14 13:51S 27°13' E 153°49'2112.1
2017-Nov-14 12:08S 27°33' E 153°54'320.3
2017-Nov-14 12:00S 27°30' E 153°54'654.5 080 / 141020.910.8 22.0 23.0
2017-Nov-14 11:53S 27°36' E 153°54'411.9
2017-Nov-14 11:30S 27°41' E 153°54'612.1
2017-Nov-14 11:00S 27°47' E 153°54'612.2
2017-Nov-14 10:30S 27°53' E 153°54'612.2
2017-Nov-14 10:00S 27°59' E 153°55'611.9
2017-Nov-14 09:30S 28°05' E 153°55'611.8
2017-Nov-14 09:00S 28°11' E 153°56'611.9
2017-Nov-14 08:30S 28°17' E 153°56'611.9
2017-Nov-14 08:00S 28°23' E 153°56'612.2
2017-Nov-14 07:30S 28°29' E 153°56'612.4
2017-Nov-14 07:00S 28°35' E 153°57'19815.2
2017-Nov-13 18:00S 31°48' E 153°06'149 6.2 290 / 91021.210.8 19.4 22.0
2017-Nov-12 18:02S 33°51' E 151°25'115.9
2017-Nov-12 17:57S 33°51' E 151°27'815.8
2017-Nov-12 17:27S 33°54' E 151°36'20618.0
2017-Nov-12 06:00S 35°06' E 155°30'11519.2 180 / 161024.010.8 17.0 18.0
2017-Nov-12 00:00S 35°48' E 157°42'9719.4 180 / 151025.0 5.4 18.0 19.0
2017-Nov-11 19:00S 36°18' E 159°36'15021.4 350 / 201024.010.8 15.0 14.0
2017-Nov-11 12:00S 37°12' E 162°30'24220.2 180 / 321022.9 5.4 14.1 15.0
2017-Nov-11 00:00S 38°36' E 167°18'   180 / 241019.0 5.4 15.0 15.0
Track history (hours):
 
Tides and Currents Weather Stations Pressure Air Temp Water Temp Dewpoint Dewpoint Depression Visibility Wind Speed Wind Dir Waves Ship Positions

Voyager Of The Seas

Operator: Royal Caribbean Cruises Ltd

Last reported at 2017-Nov-19 18:32 UTC. Time now 2017-Nov-21 08:18 UTC.
Position S 28°31' E 153°60'.

Type: Passenger vessel. MMSI: 311317000.

Date/timePositionNaut miles runAvg speedWind from/ knotsBaromVisibWave heightAir tempDewpointWater temp
2017-Nov-19 18:32S 28°31' E 153°60'119.9
2017-Nov-19 18:30S 28°31' E 153°60'1819.8
2017-Nov-19 17:35S 28°13' E 153°58'219.6
2017-Nov-19 17:30S 28°11' E 153°58'1019.4
2017-Nov-19 17:00S 28°02' E 153°57'1119.4
2017-Nov-19 16:25S 27°50' E 153°56'819.3
2017-Nov-19 16:00S 27°42' E 153°55'7318.3
2017-Nov-19 12:00S 26°30' E 153°42'22218.5 110 / 221018.7 22.0 25.0
2017-Nov-19 00:00S 23°06' E 152°06'21618.0 110 / 121015.610.8 24.5 25.0
2017-Nov-18 12:00S 20°36' E 149°18'171 3.6 090 / 141013.010.8 25.0 25.0
2017-Nov-16 12:00S 19°30' E 152°06'42517.7 120 / 131015.0
2017-Nov-15 12:00S 26°30' E 153°18'1916.3 050 / 101018.8 22.5 23.0
2017-Nov-15 10:50S 26°48' E 153°11'413.6
2017-Nov-15 10:31S 26°52' E 153°09'917.6
2017-Nov-15 10:01S 26°60' E 153°14'816.4
2017-Nov-15 09:31S 27°06' E 153°20'816.1
2017-Nov-15 09:01S 27°14' E 153°20'816.9
2017-Nov-15 08:31S 27°19' E 153°12'4 7.9
2017-Nov-15 07:59S 27°23' E 153°10'0 0.0
2017-Nov-15 07:29S 27°23' E 153°10'0 0.0
2017-Nov-15 06:59S 27°23' E 153°10'0 0.0
2017-Nov-15 06:29S 27°23' E 153°10'0 0.0
2017-Nov-15 05:59S 27°23' E 153°10'0 0.0
2017-Nov-15 05:29S 27°23' E 153°10'0 0.0
2017-Nov-15 04:59S 27°23' E 153°10'0 0.0
2017-Nov-15 04:29S 27°23' E 153°10'0 0.0
2017-Nov-15 03:59S 27°23' E 153°10'0 0.0
2017-Nov-15 03:29S 27°23' E 153°10'0 0.0
2017-Nov-15 02:59S 27°23' E 153°10'0 0.0
2017-Nov-15 02:29S 27°23' E 153°10'0 0.0
2017-Nov-15 01:59S 27°23' E 153°10'0 0.0
2017-Nov-15 01:29S 27°23' E 153°10'0 0.0
2017-Nov-15 00:56S 27°23' E 153°10'0 0.0
2017-Nov-15 00:29S 27°23' E 153°10'0 0.0
2017-Nov-14 23:59S 27°23' E 153°10'0 0.0
2017-Nov-14 23:29S 27°23' E 153°10'0 0.0
2017-Nov-14 22:59S 27°23' E 153°10'0 0.0
2017-Nov-14 22:29S 27°23' E 153°10'0 0.0
2017-Nov-14 21:59S 27°23' E 153°10'0 0.1
2017-Nov-14 21:26S 27°23' E 153°10'1 1.5
2017-Nov-14 21:00S 27°22' E 153°10'611.3
2017-Nov-14 20:30S 27°18' E 153°13'917.0
2017-Nov-14 20:00S 27°12' E 153°21'917.8
2017-Nov-14 19:30S 27°03' E 153°18'917.4
2017-Nov-14 19:00S 26°56' E 153°12'815.2
2017-Nov-14 18:30S 26°49' E 153°10'613.0
2017-Nov-14 18:00S 26°43' E 153°13'5 9.1
2017-Nov-14 17:30S 26°44' E 153°18'510.6
2017-Nov-14 17:00S 26°47' E 153°23'510.8
2017-Nov-14 16:30S 26°50' E 153°27'610.6
2017-Nov-14 15:59S 26°53' E 153°32'611.3
2017-Nov-14 15:26S 26°57' E 153°38'511.9
2017-Nov-14 15:00S 27°01' E 153°42'611.9
2017-Nov-14 14:30S 27°05' E 153°47'812.3
2017-Nov-14 13:51S 27°13' E 153°49'2112.1
2017-Nov-14 12:08S 27°33' E 153°54'320.3
2017-Nov-14 12:00S 27°30' E 153°54'654.5 080 / 141020.910.8 22.0 23.0
2017-Nov-14 11:53S 27°36' E 153°54'411.9
2017-Nov-14 11:30S 27°41' E 153°54'612.1
2017-Nov-14 11:00S 27°47' E 153°54'612.2
2017-Nov-14 10:30S 27°53' E 153°54'612.2
2017-Nov-14 10:00S 27°59' E 153°55'611.9
2017-Nov-14 09:30S 28°05' E 153°55'611.8
2017-Nov-14 09:00S 28°11' E 153°56'611.9
2017-Nov-14 08:30S 28°17' E 153°56'611.9
2017-Nov-14 08:00S 28°23' E 153°56'612.2
2017-Nov-14 07:30S 28°29' E 153°56'612.4
2017-Nov-14 07:00S 28°35' E 153°57'19815.2
2017-Nov-13 18:00S 31°48' E 153°06'149 6.2 290 / 91021.210.8 19.4 22.0
2017-Nov-12 18:02S 33°51' E 151°25'115.9
2017-Nov-12 17:57S 33°51' E 151°27'815.8
2017-Nov-12 17:27S 33°54' E 151°36'20618.0
2017-Nov-12 06:00S 35°06' E 155°30'11519.2 180 / 161024.010.8 17.0 18.0
2017-Nov-12 00:00S 35°48' E 157°42'9719.4 180 / 151025.0 5.4 18.0 19.0
2017-Nov-11 19:00S 36°18' E 159°36'15021.4 350 / 201024.010.8 15.0 14.0
2017-Nov-11 12:00S 37°12' E 162°30'24220.2 180 / 321022.9 5.4 14.1 15.0
2017-Nov-11 00:00S 38°36' E 167°18'   180 / 241019.0 5.4 15.0 15.0

Dump ship's entire track history